Novo Horizonte, Brazil
Current Conditions -  °F | °C
As of 12:00 PM on Thursday 23 Oct 2014 (Local Time) from SBQV Reporting Station
Broken Clouds Broken Clouds  
Wind Chill: 68°   Ceiling: 1200
Heat Index: 68°   Visibility: 6mi
Dew Point: 64°   Wind: 13mph
Humidity: 88%   Direction: 130°SE
Pressure: 30.18"   Gusts: NA
Location:  12.81°S, 42.17°W
Report Text: SBQV 231500Z 13011KT 9999 SCT006 BKN012 20/18 Q1022
Loading
Personal Weather Stations






























Interactive Weather Map
Tropical Storm Tracking
New forecast layout! Learn more

10-Day Weather Forecast

Advertisements
Track Severe Weather on mobile